sensor_id;sensor_type;location;lat;lon;timestamp;temperature;humidity
59703;DHT22;45570;48.782;8.332;2022-07-24T00:00:07;19.60;99.90
59703;DHT22;45570;48.782;8.332;2022-07-24T00:02:39;19.50;99.90
59703;DHT22;45570;48.782;8.332;2022-07-24T00:05:08;19.50;99.90
59703;DHT22;45570;48.782;8.332;2022-07-24T00:07:38;19.50;99.90
59703;DHT22;45570;48.782;8.332;2022-07-24T00:10:08;19.40;99.90
59703;DHT22;45570;48.782;8.332;2022-07-24T00:12:37;19.80;99.90
59703;DHT22;45570;48.782;8.332;2022-07-24T00:15:09;19.40;99.90
59703;DHT22;45570;48.782;8.332;2022-07-24T00:17:38;19.40;99.90
59703;DHT22;45570;48.782;8.332;2022-07-24T00:20:08;19.30;99.90
59703;DHT22;45570;48.782;8.332;2022-07-24T00:22:39;19.20;99.90
59703;DHT22;45570;48.782;8.332;2022-07-24T00:25:08;19.10;99.90
59703;DHT22;45570;48.782;8.332;2022-07-24T00:27:37;19.10;99.90
59703;DHT22;45570;48.782;8.332;2022-07-24T00:30:08;19.10;99.90
59703;DHT22;45570;48.782;8.332;2022-07-24T00:32:37;19.00;99.90
59703;DHT22;45570;48.782;8.332;2022-07-24T00:35:06;19.10;99.90
59703;DHT22;45570;48.782;8.332;2022-07-24T00:37:35;19.00;99.90
59703;DHT22;45570;48.782;8.332;2022-07-24T00:40:05;19.10;99.90
59703;DHT22;45570;48.782;8.332;2022-07-24T00:42:34;19.10;99.90
59703;DHT22;45570;48.782;8.332;2022-07-24T00:45:03;19.00;99.90
59703;DHT22;45570;48.782;8.332;2022-07-24T00:47:51;19.10;99.90
59703;DHT22;45570;48.782;8.332;2022-07-24T00:50:24;19.00;99.90
59703;DHT22;45570;48.782;8.332;2022-07-24T00:52:53;18.90;99.90
59703;DHT22;45570;48.782;8.332;2022-07-24T00:55:23;18.80;99.90
59703;DHT22;45570;48.782;8.332;2022-07-24T00:57:53;18.80;99.90
59703;DHT22;45570;48.782;8.332;2022-07-24T01:00:22;18.70;99.90
59703;DHT22;45570;48.782;8.332;2022-07-24T01:02:52;18.70;99.90
59703;DHT22;45570;48.782;8.332;2022-07-24T01:05:23;18.80;99.90
59703;DHT22;45570;48.782;8.332;2022-07-24T01:07:52;18.80;99.90
59703;DHT22;45570;48.782;8.332;2022-07-24T01:10:21;18.80;99.90
59703;DHT22;45570;48.782;8.332;2022-07-24T01:12:50;18.80;99.90
59703;DHT22;45570;48.782;8.332;2022-07-24T01:15:18;18.70;99.90
59703;DHT22;45570;48.782;8.332;2022-07-24T01:17:48;18.70;99.90
59703;DHT22;45570;48.782;8.332;2022-07-24T01:20:19;18.60;99.90
59703;DHT22;45570;48.782;8.332;2022-07-24T01:22:49;18.50;99.90
59703;DHT22;45570;48.782;8.332;2022-07-24T01:25:18;18.50;99.90
59703;DHT22;45570;48.782;8.332;2022-07-24T01:27:47;18.30;99.90
59703;DHT22;45570;48.782;8.332;2022-07-24T01:30:16;18.30;99.90
59703;DHT22;45570;48.782;8.332;2022-07-24T01:32:44;18.20;99.90
59703;DHT22;45570;48.782;8.332;2022-07-24T01:35:13;18.20;99.90
59703;DHT22;45570;48.782;8.332;2022-07-24T01:37:51;18.10;99.90
59703;DHT22;45570;48.782;8.332;2022-07-24T01:40:21;18.00;99.90
59703;DHT22;45570;48.782;8.332;2022-07-24T01:42:50;18.10;99.90
59703;DHT22;45570;48.782;8.332;2022-07-24T01:45:19;18.30;99.90
59703;DHT22;45570;48.782;8.332;2022-07-24T01:47:48;18.40;99.90
59703;DHT22;45570;48.782;8.332;2022-07-24T01:50:17;18.40;99.90
59703;DHT22;45570;48.782;8.332;2022-07-24T01:52:46;18.50;99.90
59703;DHT22;45570;48.782;8.332;2022-07-24T01:55:17;18.60;99.90
59703;DHT22;45570;48.782;8.332;2022-07-24T01:57:45;18.60;99.90
59703;DHT22;45570;48.782;8.332;2022-07-24T02:00:16;18.80;99.90
59703;DHT22;45570;48.782;8.332;2022-07-24T02:02:46;18.90;99.90
59703;DHT22;45570;48.782;8.332;2022-07-24T02:05:15;19.10;99.90
59703;DHT22;45570;48.782;8.332;2022-07-24T02:07:44;19.20;99.90
59703;DHT22;45570;48.782;8.332;2022-07-24T02:10:15;19.20;99.90
59703;DHT22;45570;48.782;8.332;2022-07-24T02:12:44;19.10;99.90
59703;DHT22;45570;48.782;8.332;2022-07-24T02:15:12;19.00;99.90
59703;DHT22;45570;48.782;8.332;2022-07-24T02:17:45;18.90;99.90
59703;DHT22;45570;48.782;8.332;2022-07-24T02:20:14;18.80;99.90
59703;DHT22;45570;48.782;8.332;2022-07-24T02:22:43;18.80;99.90
59703;DHT22;45570;48.782;8.332;2022-07-24T02:25:12;18.80;99.90
59703;DHT22;45570;48.782;8.332;2022-07-24T02:27:43;18.90;99.90
59703;DHT22;45570;48.782;8.332;2022-07-24T02:30:14;18.90;99.90
59703;DHT22;45570;48.782;8.332;2022-07-24T02:32:43;18.90;99.90
59703;DHT22;45570;48.782;8.332;2022-07-24T02:35:12;18.90;99.90
59703;DHT22;45570;48.782;8.332;2022-07-24T02:37:42;19.10;99.90
59703;DHT22;45570;48.782;8.332;2022-07-24T02:40:15;18.90;99.90
59703;DHT22;45570;48.782;8.332;2022-07-24T02:42:47;18.70;99.90
59703;DHT22;45570;48.782;8.332;2022-07-24T02:45:16;18.60;99.90
59703;DHT22;45570;48.782;8.332;2022-07-24T02:47:47;18.60;99.90
59703;DHT22;45570;48.782;8.332;2022-07-24T02:50:16;18.70;99.90
59703;DHT22;45570;48.782;8.332;2022-07-24T02:52:45;18.70;99.90
59703;DHT22;45570;48.782;8.332;2022-07-24T02:55:15;18.70;99.90
59703;DHT22;45570;48.782;8.332;2022-07-24T02:57:43;18.70;99.90
59703;DHT22;45570;48.782;8.332;2022-07-24T03:00:16;18.70;99.90
59703;DHT22;45570;48.782;8.332;2022-07-24T03:02:45;18.70;99.90
59703;DHT22;45570;48.782;8.332;2022-07-24T03:05:14;18.60;99.90
59703;DHT22;45570;48.782;8.332;2022-07-24T03:07:43;18.60;99.90
59703;DHT22;45570;48.782;8.332;2022-07-24T03:10:12;18.70;99.90
59703;DHT22;45570;48.782;8.332;2022-07-24T05:19:49;20.10;99.90
59703;DHT22;45570;48.782;8.332;2022-07-24T05:22:18;20.20;99.90
59703;DHT22;45570;48.782;8.332;2022-07-24T05:24:47;20.40;99.90
59703;DHT22;45570;48.782;8.332;2022-07-24T05:27:16;20.50;99.90
59703;DHT22;45570;48.782;8.332;2022-07-24T05:29:46;20.70;99.90
59703;DHT22;45570;48.782;8.332;2022-07-24T05:32:14;20.80;99.90
59703;DHT22;45570;48.782;8.332;2022-07-24T05:34:43;20.90;99.90
59703;DHT22;45570;48.782;8.332;2022-07-24T05:37:14;21.10;99.90
59703;DHT22;45570;48.782;8.332;2022-07-24T05:39:43;21.20;99.90
59703;DHT22;45570;48.782;8.332;2022-07-24T05:42:11;21.40;99.90
59703;DHT22;45570;48.782;8.332;2022-07-24T05:44:40;21.60;99.90
59703;DHT22;45570;48.782;8.332;2022-07-24T05:47:09;21.70;99.90
59703;DHT22;45570;48.782;8.332;2022-07-24T05:49:38;21.90;99.90
59703;DHT22;45570;48.782;8.332;2022-07-24T05:52:08;22.00;99.90
59703;DHT22;45570;48.782;8.332;2022-07-24T05:54:38;22.00;99.90
59703;DHT22;45570;48.782;8.332;2022-07-24T05:57:06;22.20;99.90
59703;DHT22;45570;48.782;8.332;2022-07-24T05:59:35;22.30;99.90
59703;DHT22;45570;48.782;8.332;2022-07-24T06:02:04;22.40;99.90
59703;DHT22;45570;48.782;8.332;2022-07-24T06:04:33;22.40;99.90
59703;DHT22;45570;48.782;8.332;2022-07-24T06:07:03;22.50;99.90
59703;DHT22;45570;48.782;8.332;2022-07-24T06:09:32;22.70;99.90
59703;DHT22;45570;48.782;8.332;2022-07-24T06:12:05;22.80;99.90
59703;DHT22;45570;48.782;8.332;2022-07-24T06:14:36;22.90;99.90
59703;DHT22;45570;48.782;8.332;2022-07-24T06:17:05;23.10;99.90
59703;DHT22;45570;48.782;8.332;2022-07-24T06:19:34;23.20;99.90
59703;DHT22;45570;48.782;8.332;2022-07-24T06:22:03;23.40;99.90
59703;DHT22;45570;48.782;8.332;2022-07-24T06:24:32;23.70;99.90
59703;DHT22;45570;48.782;8.332;2022-07-24T06:27:01;23.90;99.90
59703;DHT22;45570;48.782;8.332;2022-07-24T06:29:40;24.20;99.90
59703;DHT22;45570;48.782;8.332;2022-07-24T06:32:15;24.50;99.90
59703;DHT22;45570;48.782;8.332;2022-07-24T06:34:44;24.80;99.90
59703;DHT22;45570;48.782;8.332;2022-07-24T06:37:12;25.00;99.90
59703;DHT22;45570;48.782;8.332;2022-07-24T06:39:41;25.10;99.90
59703;DHT22;45570;48.782;8.332;2022-07-24T06:42:10;25.30;99.90
59703;DHT22;45570;48.782;8.332;2022-07-24T06:44:42;25.60;99.90
59703;DHT22;45570;48.782;8.332;2022-07-24T06:47:11;26.00;99.90
59703;DHT22;45570;48.782;8.332;2022-07-24T06:49:40;26.30;99.90
59703;DHT22;45570;48.782;8.332;2022-07-24T06:52:09;26.20;99.90
59703;DHT22;45570;48.782;8.332;2022-07-24T06:54:38;26.50;99.90
59703;DHT22;45570;48.782;8.332;2022-07-24T06:57:09;26.70;99.90
59703;DHT22;45570;48.782;8.332;2022-07-24T06:59:37;26.80;99.90
59703;DHT22;45570;48.782;8.332;2022-07-24T07:02:08;26.70;99.90
59703;DHT22;45570;48.782;8.332;2022-07-24T07:04:36;26.70;99.90
59703;DHT22;45570;48.782;8.332;2022-07-24T07:07:05;26.80;99.90
59703;DHT22;45570;48.782;8.332;2022-07-24T07:09:36;26.90;99.90
59703;DHT22;45570;48.782;8.332;2022-07-24T07:12:05;27.10;99.90
59703;DHT22;45570;48.782;8.332;2022-07-24T07:14:34;27.30;99.90
59703;DHT22;45570;48.782;8.332;2022-07-24T07:17:03;27.60;99.90
59703;DHT22;45570;48.782;8.332;2022-07-24T07:19:34;27.50;99.90
59703;DHT22;45570;48.782;8.332;2022-07-24T07:22:03;27.70;99.90
59703;DHT22;45570;48.782;8.332;2022-07-24T07:24:33;27.90;99.90
59703;DHT22;45570;48.782;8.332;2022-07-24T07:27:02;28.30;99.90
59703;DHT22;45570;48.782;8.332;2022-07-24T07:29:31;28.40;99.90
59703;DHT22;45570;48.782;8.332;2022-07-24T07:31:59;28.20;99.90
59703;DHT22;45570;48.782;8.332;2022-07-24T07:34:28;28.10;99.90
59703;DHT22;45570;48.782;8.332;2022-07-24T07:36:59;28.10;99.90
59703;DHT22;45570;48.782;8.332;2022-07-24T07:39:28;28.10;99.90
59703;DHT22;45570;48.782;8.332;2022-07-24T07:41:57;28.10;99.90
59703;DHT22;45570;48.782;8.332;2022-07-24T07:44:26;28.20;99.90
59703;DHT22;45570;48.782;8.332;2022-07-24T07:46:54;28.10;99.90
59703;DHT22;45570;48.782;8.332;2022-07-24T07:49:23;27.80;99.90
59703;DHT22;45570;48.782;8.332;2022-07-24T07:51:54;28.10;99.90
59703;DHT22;45570;48.782;8.332;2022-07-24T07:54:25;28.30;99.90
59703;DHT22;45570;48.782;8.332;2022-07-24T07:56:54;28.50;99.90
59703;DHT22;45570;48.782;8.332;2022-07-24T07:59:23;29.00;99.90
59703;DHT22;45570;48.782;8.332;2022-07-24T08:01:52;29.30;99.90
59703;DHT22;45570;48.782;8.332;2022-07-24T08:04:20;29.70;99.90
59703;DHT22;45570;48.782;8.332;2022-07-24T08:06:49;29.60;99.90
59703;DHT22;45570;48.782;8.332;2022-07-24T08:13:34;29.90;99.90
59703;DHT22;45570;48.782;8.332;2022-07-24T08:16:04;29.60;99.90
59703;DHT22;45570;48.782;8.332;2022-07-24T08:18:33;29.60;99.90
59703;DHT22;45570;48.782;8.332;2022-07-24T08:21:05;29.90;99.90
59703;DHT22;45570;48.782;8.332;2022-07-24T08:23:34;29.90;99.90
59703;DHT22;45570;48.782;8.332;2022-07-24T08:26:03;30.10;99.90
59703;DHT22;45570;48.782;8.332;2022-07-24T08:28:35;30.20;99.90
59703;DHT22;45570;48.782;8.332;2022-07-24T08:31:05;30.20;99.90
59703;DHT22;45570;48.782;8.332;2022-07-24T08:33:36;30.30;99.90
59703;DHT22;45570;48.782;8.332;2022-07-24T08:36:06;30.50;99.90
59703;DHT22;45570;48.782;8.332;2022-07-24T08:38:37;30.80;99.90
59703;DHT22;45570;48.782;8.332;2022-07-24T08:41:08;31.20;99.90
59703;DHT22;45570;48.782;8.332;2022-07-24T08:43:38;31.00;99.90
59703;DHT22;45570;48.782;8.332;2022-07-24T08:46:09;31.30;99.70
59703;DHT22;45570;48.782;8.332;2022-07-24T08:48:42;30.90;99.90
59703;DHT22;45570;48.782;8.332;2022-07-24T08:51:12;31.00;99.00
59703;DHT22;45570;48.782;8.332;2022-07-24T08:53:43;31.00;99.90
59703;DHT22;45570;48.782;8.332;2022-07-24T08:56:12;31.00;99.90
59703;DHT22;45570;48.782;8.332;2022-07-24T08:58:42;31.30;99.80
59703;DHT22;45570;48.782;8.332;2022-07-24T09:01:11;31.40;98.70
59703;DHT22;45570;48.782;8.332;2022-07-24T09:03:41;31.50;99.40
59703;DHT22;45570;48.782;8.332;2022-07-24T09:06:12;31.50;98.80
59703;DHT22;45570;48.782;8.332;2022-07-24T09:08:42;31.80;98.80
59703;DHT22;45570;48.782;8.332;2022-07-24T09:11:11;31.70;99.20
59703;DHT22;45570;48.782;8.332;2022-07-24T09:13:52;31.90;98.40
59703;DHT22;45570;48.782;8.332;2022-07-24T09:16:39;32.00;98.00
59703;DHT22;45570;48.782;8.332;2022-07-24T09:19:09;31.70;95.60
59703;DHT22;45570;48.782;8.332;2022-07-24T09:21:42;31.70;98.30
59703;DHT22;45570;48.782;8.332;2022-07-24T09:24:12;32.10;94.00
59703;DHT22;45570;48.782;8.332;2022-07-24T09:26:48;32.00;91.00
59703;DHT22;45570;48.782;8.332;2022-07-24T09:29:24;32.20;92.80
59703;DHT22;45570;48.782;8.332;2022-07-24T09:31:57;32.30;92.20
59703;DHT22;45570;48.782;8.332;2022-07-24T09:34:27;32.90;91.90
59703;DHT22;45570;48.782;8.332;2022-07-24T09:36:58;32.90;88.60
59703;DHT22;45570;48.782;8.332;2022-07-24T09:39:29;32.80;90.70
59703;DHT22;45570;48.782;8.332;2022-07-24T09:42:00;32.90;87.90
59703;DHT22;45570;48.782;8.332;2022-07-24T09:44:31;32.90;88.20
59703;DHT22;45570;48.782;8.332;2022-07-24T09:47:01;32.80;85.80
59703;DHT22;45570;48.782;8.332;2022-07-24T09:49:33;32.90;83.00
59703;DHT22;45570;48.782;8.332;2022-07-24T09:52:11;33.40;78.10
59703;DHT22;45570;48.782;8.332;2022-07-24T09:54:41;33.30;78.10
59703;DHT22;45570;48.782;8.332;2022-07-24T09:57:18;33.30;81.60
59703;DHT22;45570;48.782;8.332;2022-07-24T09:59:51;33.20;71.20
59703;DHT22;45570;48.782;8.332;2022-07-24T10:02:25;33.00;74.10
59703;DHT22;45570;48.782;8.332;2022-07-24T10:04:55;32.80;77.40
59703;DHT22;45570;48.782;8.332;2022-07-24T10:07:25;32.80;71.70
59703;DHT22;45570;48.782;8.332;2022-07-24T10:09:56;32.50;74.40
59703;DHT22;45570;48.782;8.332;2022-07-24T10:12:27;32.40;76.60
59703;DHT22;45570;48.782;8.332;2022-07-24T10:15:00;32.60;77.30
59703;DHT22;45570;48.782;8.332;2022-07-24T10:17:41;32.90;72.10
59703;DHT22;45570;48.782;8.332;2022-07-24T10:20:22;33.00;73.20
59703;DHT22;45570;48.782;8.332;2022-07-24T10:23:21;33.20;71.70
59703;DHT22;45570;48.782;8.332;2022-07-24T10:25:55;33.10;71.90
59703;DHT22;45570;48.782;8.332;2022-07-24T10:28:37;32.90;71.30
59703;DHT22;45570;48.782;8.332;2022-07-24T10:31:09;32.90;73.80
59703;DHT22;45570;48.782;8.332;2022-07-24T10:33:39;33.10;73.20
59703;DHT22;45570;48.782;8.332;2022-07-24T10:36:16;32.90;68.80
59703;DHT22;45570;48.782;8.332;2022-07-24T10:39:00;32.80;71.10
59703;DHT22;45570;48.782;8.332;2022-07-24T10:41:30;32.40;72.90
59703;DHT22;45570;48.782;8.332;2022-07-24T10:44:13;32.50;72.10
59703;DHT22;45570;48.782;8.332;2022-07-24T10:47:03;32.70;73.10
59703;DHT22;45570;48.782;8.332;2022-07-24T10:49:38;33.10;68.50
59703;DHT22;45570;48.782;8.332;2022-07-24T10:52:10;33.50;65.70
59703;DHT22;45570;48.782;8.332;2022-07-24T10:54:39;33.20;70.30
59703;DHT22;45570;48.782;8.332;2022-07-24T10:57:08;33.10;69.00
59703;DHT22;45570;48.782;8.332;2022-07-24T10:59:39;32.90;68.50
59703;DHT22;45570;48.782;8.332;2022-07-24T11:02:27;32.80;73.30
59703;DHT22;45570;48.782;8.332;2022-07-24T11:05:25;32.90;70.50
59703;DHT22;45570;48.782;8.332;2022-07-24T11:08:27;33.00;72.40
59703;DHT22;45570;48.782;8.332;2022-07-24T11:11:12;33.10;68.80
59703;DHT22;45570;48.782;8.332;2022-07-24T11:13:48;33.00;66.50
59703;DHT22;45570;48.782;8.332;2022-07-24T11:16:20;32.70;66.80
59703;DHT22;45570;48.782;8.332;2022-07-24T11:19:28;32.70;67.50
59703;DHT22;45570;48.782;8.332;2022-07-24T11:22:10;33.00;71.20
59703;DHT22;45570;48.782;8.332;2022-07-24T11:25:06;33.30;66.70
59703;DHT22;45570;48.782;8.332;2022-07-24T11:27:41;33.30;64.90
59703;DHT22;45570;48.782;8.332;2022-07-24T11:30:11;33.10;70.50
59703;DHT22;45570;48.782;8.332;2022-07-24T11:32:41;33.30;67.20
59703;DHT22;45570;48.782;8.332;2022-07-24T11:35:11;33.40;62.20
59703;DHT22;45570;48.782;8.332;2022-07-24T11:37:41;33.60;63.00
59703;DHT22;45570;48.782;8.332;2022-07-24T11:40:15;33.80;63.10
59703;DHT22;45570;48.782;8.332;2022-07-24T11:42:44;33.70;63.20
59703;DHT22;45570;48.782;8.332;2022-07-24T11:45:16;33.80;61.70
59703;DHT22;45570;48.782;8.332;2022-07-24T11:47:46;33.60;60.30
59703;DHT22;45570;48.782;8.332;2022-07-24T11:50:20;33.30;62.60
59703;DHT22;45570;48.782;8.332;2022-07-24T11:52:49;33.20;63.20
59703;DHT22;45570;48.782;8.332;2022-07-24T11:55:21;32.90;63.00
59703;DHT22;45570;48.782;8.332;2022-07-24T11:57:53;32.90;62.80
59703;DHT22;45570;48.782;8.332;2022-07-24T12:00:42;33.20;64.00
59703;DHT22;45570;48.782;8.332;2022-07-24T12:03:11;33.50;60.90
59703;DHT22;45570;48.782;8.332;2022-07-24T12:05:43;33.60;59.70
59703;DHT22;45570;48.782;8.332;2022-07-24T12:08:21;33.30;61.00
59703;DHT22;45570;48.782;8.332;2022-07-24T12:10:55;33.10;63.40
59703;DHT22;45570;48.782;8.332;2022-07-24T12:13:24;33.00;65.00
59703;DHT22;45570;48.782;8.332;2022-07-24T12:15:53;33.30;62.50
59703;DHT22;45570;48.782;8.332;2022-07-24T12:18:22;33.40;62.60
59703;DHT22;45570;48.782;8.332;2022-07-24T12:21:00;33.40;60.30
59703;DHT22;45570;48.782;8.332;2022-07-24T12:23:30;33.60;66.20
59703;DHT22;45570;48.782;8.332;2022-07-24T12:26:00;33.80;63.50
59703;DHT22;45570;48.782;8.332;2022-07-24T12:28:28;33.90;61.10
59703;DHT22;45570;48.782;8.332;2022-07-24T12:30:57;34.10;62.50
59703;DHT22;45570;48.782;8.332;2022-07-24T12:33:33;34.10;59.30
59703;DHT22;45570;48.782;8.332;2022-07-24T12:36:07;34.20;60.30
59703;DHT22;45570;48.782;8.332;2022-07-24T12:38:39;34.00;58.60
59703;DHT22;45570;48.782;8.332;2022-07-24T12:41:09;33.90;58.90
59703;DHT22;45570;48.782;8.332;2022-07-24T12:43:48;33.50;59.90
59703;DHT22;45570;48.782;8.332;2022-07-24T12:46:19;33.30;61.50
59703;DHT22;45570;48.782;8.332;2022-07-24T12:48:57;33.40;59.50
59703;DHT22;45570;48.782;8.332;2022-07-24T12:51:46;33.50;59.50
59703;DHT22;45570;48.782;8.332;2022-07-24T12:54:16;33.30;65.80
59703;DHT22;45570;48.782;8.332;2022-07-24T12:56:47;33.20;58.70
59703;DHT22;45570;48.782;8.332;2022-07-24T12:59:24;33.00;61.30
59703;DHT22;45570;48.782;8.332;2022-07-24T13:01:54;33.20;60.90
59703;DHT22;45570;48.782;8.332;2022-07-24T13:04:25;33.30;61.70
59703;DHT22;45570;48.782;8.332;2022-07-24T13:06:57;33.50;60.80
59703;DHT22;45570;48.782;8.332;2022-07-24T13:09:29;33.70;60.10
59703;DHT22;45570;48.782;8.332;2022-07-24T13:12:05;33.60;60.80
59703;DHT22;45570;48.782;8.332;2022-07-24T17:51:48;29.50;69.70
59703;DHT22;45570;48.782;8.332;2022-07-24T17:54:18;29.40;69.70
59703;DHT22;45570;48.782;8.332;2022-07-24T17:56:48;29.30;72.50
59703;DHT22;45570;48.782;8.332;2022-07-24T17:59:16;29.20;76.50
59703;DHT22;45570;48.782;8.332;2022-07-24T18:01:45;29.10;74.40
59703;DHT22;45570;48.782;8.332;2022-07-24T18:04:14;28.90;77.30
59703;DHT22;45570;48.782;8.332;2022-07-24T18:06:43;28.70;79.00
59703;DHT22;45570;48.782;8.332;2022-07-24T18:09:11;28.60;78.00
59703;DHT22;45570;48.782;8.332;2022-07-24T18:11:42;28.30;81.00
59703;DHT22;45570;48.782;8.332;2022-07-24T18:14:10;28.20;80.70
59703;DHT22;45570;48.782;8.332;2022-07-24T18:16:40;28.00;81.60
59703;DHT22;45570;48.782;8.332;2022-07-24T18:19:09;27.90;82.40
59703;DHT22;45570;48.782;8.332;2022-07-24T18:21:44;27.70;85.60
59703;DHT22;45570;48.782;8.332;2022-07-24T18:24:13;27.60;82.20
59703;DHT22;45570;48.782;8.332;2022-07-24T18:26:43;27.40;82.70
59703;DHT22;45570;48.782;8.332;2022-07-24T18:29:13;27.30;85.00
59703;DHT22;45570;48.782;8.332;2022-07-24T18:31:42;27.20;85.20
59703;DHT22;45570;48.782;8.332;2022-07-24T18:34:11;27.10;84.70
59703;DHT22;45570;48.782;8.332;2022-07-24T18:36:41;27.00;88.00
59703;DHT22;45570;48.782;8.332;2022-07-24T18:39:10;26.90;86.40
59703;DHT22;45570;48.782;8.332;2022-07-24T18:41:39;26.80;88.20
59703;DHT22;45570;48.782;8.332;2022-07-24T18:44:09;26.80;82.00
59703;DHT22;45570;48.782;8.332;2022-07-24T18:46:38;26.70;89.30
59703;DHT22;45570;48.782;8.332;2022-07-24T18:49:07;26.60;90.10
59703;DHT22;45570;48.782;8.332;2022-07-24T18:51:36;26.70;88.60
59703;DHT22;45570;48.782;8.332;2022-07-24T18:54:04;26.70;88.90
59703;DHT22;45570;48.782;8.332;2022-07-24T18:56:34;26.60;89.50
59703;DHT22;45570;48.782;8.332;2022-07-24T18:59:02;26.40;90.00
59703;DHT22;45570;48.782;8.332;2022-07-24T19:01:33;26.20;90.30
59703;DHT22;45570;48.782;8.332;2022-07-24T19:04:02;26.10;90.70
59703;DHT22;45570;48.782;8.332;2022-07-24T19:06:31;26.00;90.60
59703;DHT22;45570;48.782;8.332;2022-07-24T19:09:00;25.90;91.00
59703;DHT22;45570;48.782;8.332;2022-07-24T19:11:29;25.80;90.90
59703;DHT22;45570;48.782;8.332;2022-07-24T19:13:57;25.70;91.10
59703;DHT22;45570;48.782;8.332;2022-07-24T19:16:28;25.60;91.40
59703;DHT22;45570;48.782;8.332;2022-07-24T19:18:59;25.40;92.00
59703;DHT22;45570;48.782;8.332;2022-07-24T19:21:28;25.20;92.70
59703;DHT22;45570;48.782;8.332;2022-07-24T19:23:56;25.00;93.40
59703;DHT22;45570;48.782;8.332;2022-07-24T19:26:25;24.80;94.80
59703;DHT22;45570;48.782;8.332;2022-07-24T19:28:54;24.70;95.30
59703;DHT22;45570;48.782;8.332;2022-07-24T19:31:23;24.60;95.80
59703;DHT22;45570;48.782;8.332;2022-07-24T19:33:51;24.50;97.00
59703;DHT22;45570;48.782;8.332;2022-07-24T19:36:22;24.30;98.20
59703;DHT22;45570;48.782;8.332;2022-07-24T19:38:51;24.10;98.50
59703;DHT22;45570;48.782;8.332;2022-07-24T19:41:20;23.90;99.30
59703;DHT22;45570;48.782;8.332;2022-07-24T19:43:48;23.90;98.80
59703;DHT22;45570;48.782;8.332;2022-07-24T19:46:17;23.90;99.90
59703;DHT22;45570;48.782;8.332;2022-07-24T19:48:46;23.70;99.90
59703;DHT22;45570;48.782;8.332;2022-07-24T19:51:15;23.50;99.90
59703;DHT22;45570;48.782;8.332;2022-07-24T19:54:05;23.30;99.90
59703;DHT22;45570;48.782;8.332;2022-07-24T19:56:35;23.10;99.90
59703;DHT22;45570;48.782;8.332;2022-07-24T19:59:04;23.00;99.90
59703;DHT22;45570;48.782;8.332;2022-07-24T20:01:33;23.00;99.90
59703;DHT22;45570;48.782;8.332;2022-07-24T20:04:02;23.00;99.90
59703;DHT22;45570;48.782;8.332;2022-07-24T20:06:31;22.90;99.90
59703;DHT22;45570;48.782;8.332;2022-07-24T20:09:01;22.70;99.90
59703;DHT22;45570;48.782;8.332;2022-07-24T20:11:31;22.70;99.90
59703;DHT22;45570;48.782;8.332;2022-07-24T20:14:00;22.60;99.90
59703;DHT22;45570;48.782;8.332;2022-07-24T20:16:30;22.60;99.90
59703;DHT22;45570;48.782;8.332;2022-07-24T20:18:58;22.50;99.90
59703;DHT22;45570;48.782;8.332;2022-07-24T20:21:27;22.50;99.90
59703;DHT22;45570;48.782;8.332;2022-07-24T20:23:56;22.50;99.90
59703;DHT22;45570;48.782;8.332;2022-07-24T20:26:26;22.40;99.90
59703;DHT22;45570;48.782;8.332;2022-07-24T20:29:01;22.30;99.90
59703;DHT22;45570;48.782;8.332;2022-07-24T20:31:30;22.30;99.90
59703;DHT22;45570;48.782;8.332;2022-07-24T20:33:59;22.30;99.90
59703;DHT22;45570;48.782;8.332;2022-07-24T20:36:32;22.30;99.90
59703;DHT22;45570;48.782;8.332;2022-07-24T20:39:01;22.20;99.90
59703;DHT22;45570;48.782;8.332;2022-07-24T20:41:30;22.10;99.90
59703;DHT22;45570;48.782;8.332;2022-07-24T20:44:00;22.10;99.90
59703;DHT22;45570;48.782;8.332;2022-07-24T20:46:30;22.00;99.90
59703;DHT22;45570;48.782;8.332;2022-07-24T20:48:58;22.00;99.90
59703;DHT22;45570;48.782;8.332;2022-07-24T20:51:27;22.00;99.90
59703;DHT22;45570;48.782;8.332;2022-07-24T20:53:57;21.80;99.90
59703;DHT22;45570;48.782;8.332;2022-07-24T20:56:27;21.70;99.90
59703;DHT22;45570;48.782;8.332;2022-07-24T20:58:56;21.80;99.90
59703;DHT22;45570;48.782;8.332;2022-07-24T21:01:27;21.70;99.90
59703;DHT22;45570;48.782;8.332;2022-07-24T21:03:56;21.60;99.90
59703;DHT22;45570;48.782;8.332;2022-07-24T21:06:24;21.60;99.90
59703;DHT22;45570;48.782;8.332;2022-07-24T21:08:53;21.50;99.90
59703;DHT22;45570;48.782;8.332;2022-07-24T21:11:23;21.50;99.90
59703;DHT22;45570;48.782;8.332;2022-07-24T21:13:51;21.40;99.90
59703;DHT22;45570;48.782;8.332;2022-07-24T21:16:20;21.30;99.90
59703;DHT22;45570;48.782;8.332;2022-07-24T21:18:51;21.30;99.90
59703;DHT22;45570;48.782;8.332;2022-07-24T21:21:20;21.30;99.90
59703;DHT22;45570;48.782;8.332;2022-07-24T21:23:49;21.30;99.90
59703;DHT22;45570;48.782;8.332;2022-07-24T21:26:18;21.20;99.90
59703;DHT22;45570;48.782;8.332;2022-07-24T21:28:47;21.20;99.90
59703;DHT22;45570;48.782;8.332;2022-07-24T21:31:15;21.10;99.90
59703;DHT22;45570;48.782;8.332;2022-07-24T21:33:48;21.10;99.90
59703;DHT22;45570;48.782;8.332;2022-07-24T21:36:18;21.00;99.90
59703;DHT22;45570;48.782;8.332;2022-07-24T21:38:47;21.00;99.90
59703;DHT22;45570;48.782;8.332;2022-07-24T21:41:16;21.00;99.90
59703;DHT22;45570;48.782;8.332;2022-07-24T21:43:45;20.90;99.90
59703;DHT22;45570;48.782;8.332;2022-07-24T21:46:14;20.80;99.90
59703;DHT22;45570;48.782;8.332;2022-07-24T21:48:42;20.80;99.90
59703;DHT22;45570;48.782;8.332;2022-07-24T21:51:11;20.80;99.90
59703;DHT22;45570;48.782;8.332;2022-07-24T21:53:42;20.80;99.90
59703;DHT22;45570;48.782;8.332;2022-07-24T21:56:10;20.80;99.90
59703;DHT22;45570;48.782;8.332;2022-07-24T21:58:39;20.80;99.90
59703;DHT22;45570;48.782;8.332;2022-07-24T22:01:08;20.70;99.90
59703;DHT22;45570;48.782;8.332;2022-07-24T22:03:38;20.80;99.90
59703;DHT22;45570;48.782;8.332;2022-07-24T22:06:06;20.90;99.90
59703;DHT22;45570;48.782;8.332;2022-07-24T22:08:35;21.00;99.90
59703;DHT22;45570;48.782;8.332;2022-07-24T22:11:05;21.20;99.90
59703;DHT22;45570;48.782;8.332;2022-07-24T22:13:34;21.50;99.90
59703;DHT22;45570;48.782;8.332;2022-07-24T22:16:04;21.60;99.90
59703;DHT22;45570;48.782;8.332;2022-07-24T22:18:33;21.60;99.90
59703;DHT22;45570;48.782;8.332;2022-07-24T22:21:02;21.60;99.90
59703;DHT22;45570;48.782;8.332;2022-07-24T22:23:30;21.60;99.90
59703;DHT22;45570;48.782;8.332;2022-07-24T22:26:00;21.70;99.90
59703;DHT22;45570;48.782;8.332;2022-07-24T22:28:30;21.60;99.90
59703;DHT22;45570;48.782;8.332;2022-07-24T22:30:59;21.60;99.90
59703;DHT22;45570;48.782;8.332;2022-07-24T22:33:28;21.80;99.90
59703;DHT22;45570;48.782;8.332;2022-07-24T22:35:57;21.80;99.90
59703;DHT22;45570;48.782;8.332;2022-07-24T22:38:27;21.80;99.90
59703;DHT22;45570;48.782;8.332;2022-07-24T22:40:56;21.90;99.90